createdAt,value
2019-05-26T00:00:03.147Z,0
2019-05-26T00:00:43.739Z,0
2019-05-26T00:01:24.339Z,0
2019-05-26T00:02:04.933Z,0
2019-05-26T00:02:45.490Z,0
2019-05-26T00:03:26.059Z,0
2019-05-26T00:04:06.623Z,0
2019-05-26T00:10:11.824Z,0
2019-05-26T00:10:52.358Z,0
2019-05-26T00:11:32.938Z,0
2019-05-26T00:12:15.812Z,0
2019-05-26T00:12:54.069Z,0
2019-05-26T00:13:34.647Z,0
2019-05-26T00:14:15.217Z,0
2019-05-26T00:14:55.814Z,0
2019-05-26T00:15:36.369Z,0
2019-05-26T00:16:16.926Z,0
2019-05-26T00:21:41.742Z,0
2019-05-26T00:22:22.460Z,0
2019-05-26T00:23:03.041Z,0
2019-05-26T00:23:43.609Z,0
2019-05-26T00:24:24.212Z,0
2019-05-26T00:25:04.847Z,0
2019-05-26T00:25:45.412Z,0
2019-05-26T00:26:25.982Z,0
2019-05-26T00:27:06.594Z,0
2019-05-26T00:33:11.756Z,0
2019-05-26T00:33:52.365Z,0
2019-05-26T00:34:32.959Z,0
2019-05-26T00:35:13.515Z,0
2019-05-26T00:35:54.097Z,0
2019-05-26T00:36:34.657Z,0
2019-05-26T00:37:15.229Z,0
2019-05-26T00:37:55.788Z,0
2019-05-26T00:38:36.361Z,0
2019-05-26T00:39:16.975Z,0
2019-05-26T00:44:41.585Z,0
2019-05-26T00:45:22.129Z,0
2019-05-26T00:46:02.705Z,0
2019-05-26T00:46:43.278Z,0
2019-05-26T00:47:23.836Z,0
2019-05-26T00:48:04.394Z,0
2019-05-26T00:48:44.968Z,0
2019-05-26T00:49:25.523Z,0
2019-05-26T00:50:06.084Z,0
2019-05-26T00:50:46.647Z,0
2019-05-26T00:56:51.823Z,0
2019-05-26T00:57:32.396Z,0
2019-05-26T00:58:12.953Z,0
2019-05-26T00:58:53.518Z,0
2019-05-26T01:01:06.323Z,0
2019-05-26T01:01:46.913Z,0
2019-05-26T01:02:27.474Z,0
2019-05-26T01:03:08.028Z,0
2019-05-26T01:03:48.592Z,0
2019-05-26T01:04:29.150Z,0
2019-05-26T01:05:09.715Z,0
2019-05-26T01:05:50.284Z,0
2019-05-26T01:06:30.845Z,0
2019-05-26T01:07:11.467Z,0
2019-05-26T01:13:16.567Z,0
2019-05-26T01:13:57.145Z,0
2019-05-26T01:14:37.697Z,0
2019-05-26T01:15:18.248Z,0
2019-05-26T01:15:58.860Z,0
2019-05-26T01:16:39.428Z,0
2019-05-26T01:17:19.966Z,0
2019-05-26T01:18:00.597Z,0
2019-05-26T01:18:41.181Z,0
2019-05-26T01:24:06.166Z,0
2019-05-26T01:24:46.719Z,0
2019-05-26T01:25:27.281Z,0
2019-05-26T01:26:07.887Z,0
2019-05-26T01:26:48.464Z,0
2019-05-26T01:27:29.065Z,0
2019-05-26T01:28:09.909Z,0
2019-05-26T01:28:50.450Z,0
2019-05-26T01:29:31.057Z,0
2019-05-26T01:35:36.191Z,0
2019-05-26T01:36:16.758Z,0
2019-05-26T01:36:57.318Z,0
2019-05-26T01:37:37.868Z,0
2019-05-26T01:38:24.034Z,0
2019-05-26T01:38:59.009Z,0
2019-05-26T01:39:39.574Z,0
2019-05-26T01:40:20.124Z,0
2019-05-26T01:41:00.692Z,0
2019-05-26T01:41:41.262Z,0
2019-05-26T01:47:46.383Z,0
2019-05-26T01:48:26.957Z,0
2019-05-26T01:49:07.534Z,0
2019-05-26T01:49:48.229Z,0
2019-05-26T01:50:28.810Z,0
2019-05-26T01:51:09.400Z,0
2019-05-26T01:51:49.981Z,0
2019-05-26T01:52:30.583Z,0
2019-05-26T01:53:11.181Z,0
2019-05-26T01:59:16.209Z,0
2019-05-26T01:59:56.789Z,0
2019-05-26T02:00:37.353Z,0
2019-05-26T02:01:17.900Z,0
2019-05-26T02:01:58.849Z,0
2019-05-26T02:02:39.039Z,0
2019-05-26T02:03:19.566Z,0
2019-05-26T02:04:00.130Z,0
2019-05-26T02:04:40.707Z,0
2019-05-26T02:05:21.279Z,0
2019-05-26T02:11:26.369Z,0
2019-05-26T02:12:06.925Z,0
2019-05-26T02:12:47.498Z,0
2019-05-26T02:13:28.059Z,0
2019-05-26T02:14:08.621Z,0
2019-05-26T02:14:49.277Z,0
2019-05-26T02:15:29.820Z,0
2019-05-26T02:16:10.398Z,0
2019-05-26T02:16:50.964Z,0
2019-05-26T02:23:53.222Z,4
2019-05-26T02:24:33.762Z,4
2019-05-26T02:25:14.307Z,4
2019-05-26T02:25:54.921Z,4
2019-05-26T02:26:35.474Z,4
2019-05-26T02:27:16.036Z,4
2019-05-26T02:27:56.876Z,8
2019-05-26T02:28:37.455Z,4
2019-05-26T02:29:18.025Z,4
2019-05-26T02:35:23.087Z,12
2019-05-26T02:36:03.661Z,16
2019-05-26T02:36:44.223Z,12
2019-05-26T02:37:24.782Z,16
2019-05-26T02:38:05.337Z,16
2019-05-26T02:39:00.711Z,20
2019-05-26T02:39:26.494Z,20
2019-05-26T02:40:07.054Z,24
2019-05-26T02:40:47.603Z,24
2019-05-26T02:41:28.175Z,24
2019-05-26T02:49:52.622Z,56
2019-05-26T02:50:33.183Z,56
2019-05-26T02:51:13.749Z,60
2019-05-26T02:51:54.340Z,64
2019-05-26T02:52:34.906Z,64
2019-05-26T02:53:15.448Z,68
2019-05-26T02:53:56.029Z,68
2019-05-26T02:54:36.636Z,72
2019-05-26T02:55:17.210Z,76
2019-05-26T02:55:57.829Z,80
2019-05-26T03:01:22.312Z,104
2019-05-26T03:02:04.648Z,108
2019-05-26T03:02:43.451Z,116
2019-05-26T03:03:24.026Z,120
2019-05-26T03:04:04.598Z,124
2019-05-26T03:04:45.167Z,128
2019-05-26T03:05:25.726Z,136
2019-05-26T03:06:06.301Z,144
2019-05-26T03:06:46.863Z,152
2019-05-26T03:07:27.425Z,156
2019-05-26T03:13:32.487Z,224
2019-05-26T03:14:13.033Z,232
2019-05-26T03:14:53.584Z,240
2019-05-26T03:15:34.132Z,248
2019-05-26T03:16:14.703Z,256
2019-05-26T03:16:55.261Z,264
2019-05-26T03:17:35.834Z,272
2019-05-26T03:18:16.395Z,280
2019-05-26T03:18:56.990Z,292
2019-05-26T03:19:37.532Z,304
2019-05-26T03:25:42.634Z,408
2019-05-26T03:26:23.198Z,420
2019-05-26T03:27:03.734Z,436
2019-05-26T03:27:44.637Z,452
2019-05-26T03:28:25.264Z,468
2019-05-26T03:29:05.840Z,484
2019-05-26T03:29:46.408Z,500
2019-05-26T03:30:26.960Z,512
2019-05-26T03:31:07.531Z,532
2019-05-26T03:37:12.595Z,676
2019-05-26T03:37:53.197Z,696
2019-05-26T03:38:33.756Z,720
2019-05-26T03:39:14.304Z,740
2019-05-26T03:39:54.871Z,760
2019-05-26T03:40:35.447Z,784
2019-05-26T03:41:15.987Z,808
2019-05-26T03:41:56.545Z,824
2019-05-26T03:42:37.116Z,844
2019-05-26T03:43:17.661Z,860
2019-05-26T03:49:22.762Z,1088
2019-05-26T03:50:03.317Z,1120
2019-05-26T03:50:43.877Z,1148
2019-05-26T03:51:24.444Z,1164
2019-05-26T03:52:05.005Z,1184
2019-05-26T03:52:45.586Z,1196
2019-05-26T03:53:26.142Z,1208
2019-05-26T03:54:06.716Z,1220
2019-05-26T03:54:47.274Z,1232
2019-05-26T04:00:52.363Z,1392
2019-05-26T04:01:32.912Z,1416
2019-05-26T04:02:13.485Z,1444
2019-05-26T04:02:54.044Z,1472
2019-05-26T04:03:34.591Z,1504
2019-05-26T04:04:15.146Z,1528
2019-05-26T04:04:55.735Z,1548
2019-05-26T04:05:36.350Z,1564
2019-05-26T04:06:16.900Z,1580
2019-05-26T04:06:57.451Z,1592
2019-05-26T04:13:02.527Z,1812
2019-05-26T04:13:43.093Z,1844
2019-05-26T04:14:23.657Z,1868
2019-05-26T04:15:04.249Z,1896
2019-05-26T04:15:44.803Z,1916
2019-05-26T04:16:25.368Z,1940
2019-05-26T04:17:05.926Z,1976
2019-05-26T04:17:46.491Z,2024
2019-05-26T04:18:27.026Z,2068
2019-05-26T04:19:07.578Z,2108
2019-05-26T04:25:12.661Z,2340
2019-05-26T04:25:53.233Z,2380
2019-05-26T04:26:33.859Z,2416
2019-05-26T04:27:14.414Z,2464
2019-05-26T04:27:54.989Z,2492
2019-05-26T04:28:35.566Z,2520
2019-05-26T04:29:16.099Z,2568
2019-05-26T04:29:56.670Z,2616
2019-05-26T04:30:37.217Z,2676
2019-05-26T04:36:42.433Z,3148
2019-05-26T04:37:23.010Z,3196
2019-05-26T04:38:03.562Z,3240
2019-05-26T04:38:44.137Z,3276
2019-05-26T04:39:24.700Z,3316
2019-05-26T04:40:24.696Z,3348
2019-05-26T04:40:45.815Z,3376
2019-05-26T04:41:26.403Z,3388
2019-05-26T04:42:06.968Z,3400
2019-05-26T04:42:47.567Z,3424
2019-05-26T04:48:52.647Z,3784
2019-05-26T04:49:37.161Z,3816
2019-05-26T04:50:13.785Z,3836
2019-05-26T04:50:54.356Z,3860
2019-05-26T04:51:34.921Z,3900
2019-05-26T04:52:15.483Z,3940
2019-05-26T04:53:05.859Z,3980
2019-05-26T04:53:36.714Z,3988
2019-05-26T04:54:17.173Z,3992
2019-05-26T04:54:57.732Z,4000
2019-05-26T05:01:02.855Z,4616
2019-05-26T05:01:43.430Z,4700
2019-05-26T05:02:23.986Z,4812
2019-05-26T05:03:04.556Z,4948
2019-05-26T05:03:45.103Z,5084
2019-05-26T05:04:25.658Z,5164
2019-05-26T05:05:06.234Z,5200
2019-05-26T05:05:46.815Z,5192
2019-05-26T05:06:27.375Z,5184
2019-05-26T05:12:32.660Z,5336
2019-05-26T05:13:13.240Z,5428
2019-05-26T05:13:53.797Z,5500
2019-05-26T05:14:34.357Z,5608
2019-05-26T05:15:14.920Z,5720
2019-05-26T05:15:55.485Z,5872
2019-05-26T05:16:36.043Z,6032
2019-05-26T05:17:16.594Z,6264
2019-05-26T05:17:57.159Z,6572
2019-05-26T05:18:37.722Z,6684
2019-05-26T05:24:42.819Z,8196
2019-05-26T05:25:23.380Z,9732
2019-05-26T05:26:03.929Z,10728
2019-05-26T05:26:44.489Z,17344
2019-05-26T05:27:25.053Z,33152
2019-05-26T05:28:05.605Z,50368
2019-05-26T05:28:46.193Z,57344
2019-05-26T05:29:26.768Z,58944
2019-05-26T05:30:07.358Z,61408
2019-05-26T05:36:12.493Z,57824
2019-05-26T05:36:53.098Z,57184
2019-05-26T05:37:33.670Z,59840
2019-05-26T05:38:14.233Z,57792
2019-05-26T05:38:54.796Z,56704
2019-05-26T05:39:35.361Z,52192
2019-05-26T05:40:15.939Z,52544
2019-05-26T05:40:59.737Z,58176
2019-05-26T05:41:37.123Z,49376
2019-05-26T05:42:17.685Z,40224
2019-05-26T05:48:22.843Z,35776
2019-05-26T05:49:03.398Z,33632
2019-05-26T05:49:43.965Z,33664
2019-05-26T05:50:24.518Z,33408
2019-05-26T05:51:05.070Z,31936
2019-05-26T05:51:45.675Z,30592
2019-05-26T05:52:26.237Z,30752
2019-05-26T05:53:06.819Z,34112
2019-05-26T05:53:47.417Z,33184
2019-05-26T05:59:52.574Z,36096
2019-05-26T06:00:33.240Z,33952
2019-05-26T06:01:13.731Z,31488
2019-05-26T06:01:54.306Z,31200
2019-05-26T06:02:34.870Z,33472
2019-05-26T06:03:18.536Z,36128
2019-05-26T06:03:56.050Z,37632
2019-05-26T06:04:36.616Z,39808
2019-05-26T06:05:17.206Z,38016
2019-05-26T06:11:22.453Z,33760
2019-05-26T06:12:03.027Z,34272
2019-05-26T06:12:43.592Z,32032
2019-05-26T06:13:24.175Z,33984
2019-05-26T06:14:04.764Z,37664
2019-05-26T06:14:45.322Z,36096
2019-05-26T06:15:25.915Z,37376
2019-05-26T06:16:06.482Z,34944
2019-05-26T06:16:47.041Z,35456
2019-05-26T06:17:27.666Z,40992
2019-05-26T06:22:52.380Z,49728
2019-05-26T06:23:36.541Z,44256
2019-05-26T06:24:13.568Z,42208
2019-05-26T06:24:54.114Z,40640
2019-05-26T06:25:34.678Z,38528
2019-05-26T06:26:15.264Z,38464
2019-05-26T06:26:55.848Z,37792
2019-05-26T06:27:36.421Z,38080
2019-05-26T06:28:17.024Z,41632
2019-05-26T06:28:57.620Z,43840
2019-05-26T06:35:02.796Z,40768
2019-05-26T06:35:43.358Z,41312
2019-05-26T06:36:23.928Z,46816
2019-05-26T06:37:04.509Z,50528
2019-05-26T06:37:45.086Z,53472
2019-05-26T06:38:25.641Z,58496
2019-05-26T06:39:06.208Z,57408
2019-05-26T06:39:46.774Z,61088
2019-05-26T06:40:27.330Z,62016
2019-05-26T06:46:32.505Z,55072
2019-05-26T06:47:13.075Z,51840
2019-05-26T06:47:53.645Z,60032
2019-05-26T06:48:34.207Z,58080
2019-05-26T06:49:14.789Z,55552
2019-05-26T06:49:55.369Z,51168
2019-05-26T06:50:35.933Z,54368
2019-05-26T06:51:16.547Z,57376
2019-05-26T06:51:57.083Z,54592
2019-05-26T06:52:37.657Z,52192
2019-05-26T06:58:02.354Z,52032
2019-05-26T06:58:42.926Z,47488
2019-05-26T06:59:23.512Z,43328
2019-05-26T07:00:04.100Z,27808
2019-05-26T07:00:44.684Z,25888
2019-05-26T07:01:25.270Z,20768
2019-05-26T07:02:05.880Z,29856
2019-05-26T07:02:47.078Z,40992
2019-05-26T07:03:27.674Z,16672
2019-05-26T07:09:32.874Z,64992
2019-05-26T07:10:13.474Z,64704
2019-05-26T07:10:54.077Z,68064
2019-05-26T07:11:49.305Z,65376
2019-05-26T07:12:15.258Z,65280
2019-05-26T07:12:55.862Z,62880
2019-05-26T07:13:36.456Z,60192
2019-05-26T07:14:17.048Z,55008
2019-05-26T07:14:57.616Z,51616
2019-05-26T07:21:02.789Z,56928
2019-05-26T07:21:43.357Z,57152
2019-05-26T07:22:23.933Z,46848
2019-05-26T07:23:06.367Z,53696
2019-05-26T07:23:45.098Z,53792
2019-05-26T07:24:29.280Z,53824
2019-05-26T07:25:06.294Z,55680
2019-05-26T07:25:46.911Z,56192
2019-05-26T07:26:27.473Z,55136
2019-05-26T07:31:52.720Z,39360
2019-05-26T07:32:33.412Z,32896
2019-05-26T07:33:13.958Z,37760
2019-05-26T07:33:54.525Z,33536
2019-05-26T07:34:35.119Z,31648
2019-05-26T07:35:15.727Z,33312
2019-05-26T07:35:56.314Z,36064
2019-05-26T07:36:36.895Z,34816
2019-05-26T07:37:17.471Z,34176
2019-05-26T07:43:22.732Z,42816
2019-05-26T07:44:03.315Z,43456
2019-05-26T07:44:43.895Z,39936
2019-05-26T07:45:24.472Z,38528
2019-05-26T07:46:05.046Z,38144
2019-05-26T07:46:45.603Z,35136
2019-05-26T07:47:26.189Z,33376
2019-05-26T07:48:06.782Z,31008
2019-05-26T07:48:47.348Z,30720
2019-05-26T07:54:52.680Z,21792
2019-05-26T07:55:33.278Z,20480
2019-05-26T07:56:13.840Z,22464
2019-05-26T07:56:54.457Z,23040
2019-05-26T07:57:35.022Z,22048
2019-05-26T07:58:15.580Z,21280
2019-05-26T07:58:56.156Z,18016
2019-05-26T07:59:36.758Z,15936
2019-05-26T08:00:17.317Z,14712
2019-05-26T08:05:02.384Z,14020
2019-05-26T08:05:43.619Z,14128
2019-05-26T08:06:24.472Z,14192
2019-05-26T08:07:05.303Z,14024
2019-05-26T08:07:46.055Z,13832
2019-05-26T08:08:26.610Z,13312
2019-05-26T08:09:07.411Z,13208
2019-05-26T08:14:32.828Z,12972
2019-05-26T08:15:13.820Z,12120
2019-05-26T08:15:54.933Z,12240
2019-05-26T08:16:36.377Z,12068
2019-05-26T08:17:17.575Z,11548
2019-05-26T08:22:42.643Z,12844
2019-05-26T08:23:23.226Z,12916
2019-05-26T08:24:04.729Z,12796
2019-05-26T08:24:45.511Z,12840
2019-05-26T08:25:26.078Z,12700
2019-05-26T08:26:06.666Z,12716
2019-05-26T08:26:48.069Z,12756
2019-05-26T08:30:12.481Z,12228
2019-05-26T08:30:53.444Z,12024
2019-05-26T08:31:34.009Z,12024
2019-05-26T08:32:15.210Z,11212
2019-05-26T08:32:55.156Z,10920
2019-05-26T08:33:35.740Z,11360
2019-05-26T08:34:16.365Z,11512
2019-05-26T08:34:56.957Z,11592
2019-05-26T08:35:37.656Z,11652
2019-05-26T08:41:02.535Z,10960
2019-05-26T08:41:43.134Z,10864
2019-05-26T08:42:27.149Z,11424
2019-05-26T08:43:04.309Z,11752
2019-05-26T08:43:44.977Z,11736
2019-05-26T08:44:25.623Z,11360
2019-05-26T08:45:06.220Z,10940
2019-05-26T08:45:46.793Z,11308
2019-05-26T08:46:27.405Z,11024
2019-05-26T08:52:32.578Z,10684
2019-05-26T08:53:13.150Z,11100
2019-05-26T08:53:53.710Z,10828
2019-05-26T08:54:34.287Z,10676
2019-05-26T08:55:14.875Z,9752
2019-05-26T08:55:55.511Z,9088
2019-05-26T08:56:36.104Z,8528
2019-05-26T08:57:16.697Z,9392
2019-05-26T08:57:57.270Z,10724
2019-05-26T09:04:02.505Z,10432
2019-05-26T09:04:43.110Z,9892
2019-05-26T09:05:23.740Z,9904
2019-05-26T09:06:04.330Z,10332
2019-05-26T09:06:44.955Z,10576
2019-05-26T09:07:25.540Z,9916
2019-05-26T09:08:08.030Z,9896
2019-05-26T09:08:46.689Z,9676
2019-05-26T09:09:27.306Z,9300
2019-05-26T09:15:32.591Z,7372
2019-05-26T09:16:13.172Z,8420
2019-05-26T09:16:53.724Z,9300
2019-05-26T09:17:34.742Z,9700
2019-05-26T09:18:16.051Z,9276
2019-05-26T09:18:56.926Z,9376
2019-05-26T09:22:23.204Z,9260
2019-05-26T09:23:04.308Z,9468
2019-05-26T09:23:45.934Z,9080
2019-05-26T09:24:27.153Z,8676
2019-05-26T09:25:07.718Z,8168
2019-05-26T09:30:32.599Z,9408
2019-05-26T09:31:13.330Z,9340
2019-05-26T09:31:53.791Z,9336
2019-05-26T09:32:34.392Z,9496
2019-05-26T09:33:14.995Z,9400
2019-05-26T09:33:55.669Z,9292
2019-05-26T09:34:36.289Z,9096
2019-05-26T09:35:17.005Z,8532
2019-05-26T09:35:57.522Z,8376
2019-05-26T09:41:22.851Z,8492
2019-05-26T09:42:03.672Z,8320
2019-05-26T09:42:44.392Z,8160
2019-05-26T09:43:24.956Z,8036
2019-05-26T09:44:05.607Z,8040
2019-05-26T09:44:46.174Z,8244
2019-05-26T09:45:26.738Z,7944
2019-05-26T09:46:07.331Z,7584
2019-05-26T09:51:32.393Z,7548
2019-05-26T09:52:13.102Z,7444
2019-05-26T09:52:53.872Z,7380
2019-05-26T09:56:07.996Z,6748
2019-05-26T09:56:48.715Z,6780
2019-05-26T09:57:29.463Z,7032
2019-05-26T09:58:10.281Z,7268
2019-05-26T09:58:51.006Z,7860
2019-05-26T09:59:31.560Z,7748
2019-05-26T10:00:15.768Z,7608
2019-05-26T10:00:52.957Z,7960
2019-05-26T10:04:57.548Z,8256
2019-05-26T10:05:39.504Z,8380
2019-05-26T10:06:20.222Z,8316
2019-05-26T10:07:00.997Z,8092
2019-05-26T10:07:41.703Z,7944
2019-05-26T10:08:22.506Z,7916
2019-05-26T10:13:47.759Z,6536
2019-05-26T10:14:28.338Z,7100
2019-05-26T10:15:09.079Z,6924
2019-05-26T10:15:49.829Z,7064
2019-05-26T10:16:30.767Z,7108
2019-05-26T10:17:12.052Z,6928
2019-05-26T10:20:26.704Z,7860
2019-05-26T10:21:07.925Z,8084
2019-05-26T10:21:49.174Z,7804
2019-05-26T10:22:30.386Z,7596
2019-05-26T10:23:11.450Z,7820
2019-05-26T10:25:56.657Z,7028
2019-05-26T10:26:37.904Z,7056
2019-05-26T10:27:19.048Z,7140
2019-05-26T10:28:00.292Z,7060
2019-05-26T10:28:41.156Z,6620
2019-05-26T10:31:27.072Z,7480
2019-05-26T10:32:08.152Z,7256
2019-05-26T10:32:49.206Z,7136
2019-05-26T10:33:30.295Z,7032
2019-05-26T10:34:13.670Z,6888
2019-05-26T10:36:56.532Z,7444
2019-05-26T10:37:37.557Z,7472
2019-05-26T10:38:19.440Z,7504
2019-05-26T10:39:00.678Z,7272
2019-05-26T10:39:44.749Z,7172
2019-05-26T10:43:07.198Z,7540
2019-05-26T10:43:49.011Z,7316
2019-05-26T10:44:30.617Z,7244
2019-05-26T10:45:12.643Z,7000
2019-05-26T10:49:34.999Z,7252
2019-05-26T10:50:16.016Z,7136
2019-05-26T10:50:57.016Z,7004
2019-05-26T10:51:37.931Z,6992
2019-05-26T10:52:19.969Z,7036
2019-05-26T10:55:45.979Z,7544
2019-05-26T10:56:27.133Z,7572
2019-05-26T10:57:08.669Z,7496
2019-05-26T10:57:49.477Z,7660
2019-05-26T10:59:54.659Z,7768
2019-05-26T11:00:36.682Z,7924
2019-05-26T11:01:17.724Z,7648
2019-05-26T11:01:59.836Z,7372
2019-05-26T11:04:44.400Z,7672
2019-05-26T11:05:25.503Z,7448
2019-05-26T11:06:07.361Z,7616
2019-05-26T11:06:49.305Z,7792
2019-05-26T11:10:14.428Z,6720
2019-05-26T11:10:55.033Z,6932
2019-05-26T11:11:35.603Z,7144
2019-05-26T11:12:16.365Z,7260
2019-05-26T11:12:57.119Z,7580
2019-05-26T11:13:40.525Z,7124
2019-05-26T11:14:18.399Z,7100
2019-05-26T11:14:58.958Z,7040
2019-05-26T11:15:39.551Z,7028
2019-05-26T11:21:04.509Z,7196
2019-05-26T11:21:45.086Z,7440
2019-05-26T11:22:25.672Z,7468
2019-05-26T11:23:06.218Z,7692
2019-05-26T11:23:46.799Z,7960
2019-05-26T11:24:27.415Z,8032
2019-05-26T11:25:07.987Z,7636
2019-05-26T11:25:48.559Z,7492
2019-05-26T11:26:29.118Z,7300
2019-05-26T11:27:12.320Z,7256
2019-05-26T11:32:34.732Z,6432
2019-05-26T11:33:15.287Z,6428
2019-05-26T11:33:55.866Z,6472
2019-05-26T11:34:36.417Z,6560
2019-05-26T11:35:16.977Z,6652
2019-05-26T11:35:57.534Z,6716
2019-05-26T11:36:38.111Z,6808
2019-05-26T11:37:18.700Z,6796
2019-05-26T11:37:59.355Z,6724
2019-05-26T11:43:24.289Z,6564
2019-05-26T11:44:16.966Z,6672
2019-05-26T11:44:45.946Z,6740
2019-05-26T11:45:26.607Z,6644
2019-05-26T11:46:07.186Z,6680
2019-05-26T11:46:47.774Z,7008
2019-05-26T11:47:28.393Z,6488
2019-05-26T11:48:08.963Z,6468
2019-05-26T11:48:49.516Z,6476
2019-05-26T11:52:54.720Z,5976
2019-05-26T11:53:36.015Z,6164
2019-05-26T11:54:17.100Z,6480
2019-05-26T11:54:58.245Z,6644
2019-05-26T11:55:39.192Z,6660
2019-05-26T11:59:04.437Z,5796
2019-05-26T11:59:47.238Z,5788
2019-05-26T12:00:26.137Z,5928
2019-05-26T12:01:07.453Z,5856
2019-05-26T12:01:48.506Z,5928
2019-05-26T12:02:29.546Z,6108
2019-05-26T12:06:50.656Z,5568
2019-05-26T12:07:31.378Z,5544
2019-05-26T12:08:12.193Z,5664
2019-05-26T12:08:53.102Z,6064
2019-05-26T12:09:33.775Z,6132
2019-05-26T12:10:14.672Z,6076
2019-05-26T12:10:58.189Z,6320
2019-05-26T12:16:20.362Z,7296
2019-05-26T12:17:01.571Z,6948
2019-05-26T12:17:42.157Z,6924
2019-05-26T12:18:22.727Z,6628
2019-05-26T12:19:03.284Z,6648
2019-05-26T12:19:44.022Z,6660
2019-05-26T12:20:24.607Z,6644
2019-05-26T12:21:05.176Z,6508
2019-05-26T12:27:10.295Z,5852
2019-05-26T12:27:50.861Z,5892
2019-05-26T12:28:31.690Z,5884
2019-05-26T12:29:12.244Z,5900
2019-05-26T12:29:52.809Z,5876
2019-05-26T12:30:33.369Z,5860
2019-05-26T12:31:14.011Z,5904
2019-05-26T12:31:54.624Z,5964
2019-05-26T12:32:35.909Z,6020
2019-05-26T12:38:00.537Z,6136
2019-05-26T12:38:41.106Z,6096
2019-05-26T12:39:21.671Z,6040
2019-05-26T12:40:02.228Z,5988
2019-05-26T12:40:42.791Z,5916
2019-05-26T12:41:23.353Z,5848
2019-05-26T12:42:03.920Z,5804
2019-05-26T12:42:44.510Z,5772
2019-05-26T12:43:25.098Z,5812
2019-05-26T12:44:05.675Z,5816
2019-05-26T12:49:30.209Z,5264
2019-05-26T12:50:10.775Z,5212
2019-05-26T12:50:51.342Z,5192
2019-05-26T12:51:31.899Z,5236
2019-05-26T12:52:12.458Z,5308
2019-05-26T12:52:53.016Z,5404
2019-05-26T12:53:33.609Z,5468
2019-05-26T12:54:14.201Z,5516
2019-05-26T12:54:54.724Z,5548
2019-05-26T12:55:35.301Z,5552
2019-05-26T13:02:06.840Z,5936
2019-05-26T13:02:47.499Z,6032
2019-05-26T13:03:27.983Z,6140
2019-05-26T13:04:08.544Z,6224
2019-05-26T13:04:49.108Z,6280
2019-05-26T13:05:29.680Z,6324
2019-05-26T13:06:10.294Z,6388
2019-05-26T13:06:50.846Z,7048
2019-05-26T13:07:31.466Z,7612
2019-05-26T13:13:12.649Z,5688
2019-05-26T13:13:53.217Z,5664
2019-05-26T13:14:33.773Z,5632
2019-05-26T13:15:14.374Z,5608
2019-05-26T13:15:54.943Z,5572
2019-05-26T13:16:36.025Z,5504
2019-05-26T13:17:16.074Z,5424
2019-05-26T13:17:56.693Z,5364
2019-05-26T13:18:37.272Z,5336
2019-05-26T13:22:51.981Z,5244
2019-05-26T13:23:32.543Z,5232
2019-05-26T13:24:13.106Z,5156
2019-05-26T13:24:53.660Z,5092
2019-05-26T13:25:34.257Z,5028
2019-05-26T13:26:14.817Z,4968
2019-05-26T13:26:55.402Z,4964
2019-05-26T13:27:35.988Z,5000
2019-05-26T13:28:16.896Z,5012
2019-05-26T13:34:22.344Z,5288
2019-05-26T13:35:02.976Z,5336
2019-05-26T13:35:43.558Z,5404
2019-05-26T13:36:24.143Z,5492
2019-05-26T13:37:04.716Z,5544
2019-05-26T13:37:45.298Z,5412
2019-05-26T13:38:25.943Z,5320
2019-05-26T13:39:06.603Z,5240
2019-05-26T13:45:21.513Z,5096
2019-05-26T13:45:52.611Z,5056
2019-05-26T13:46:33.195Z,5016
2019-05-26T13:47:25.282Z,4940
2019-05-26T13:47:54.401Z,4848
2019-05-26T13:48:35.017Z,4836
2019-05-26T13:49:15.644Z,4860
2019-05-26T13:49:56.265Z,4884
2019-05-26T13:50:36.894Z,4956
2019-05-26T13:56:01.813Z,5196
2019-05-26T13:56:42.404Z,5016
2019-05-26T13:57:22.956Z,4864
2019-05-26T13:58:03.601Z,4828
2019-05-26T13:58:44.199Z,4816
2019-05-26T13:59:24.772Z,4780
2019-05-26T14:00:05.370Z,4656
2019-05-26T14:00:45.966Z,4516
2019-05-26T14:01:26.574Z,4392
2019-05-26T14:07:31.855Z,4000
2019-05-26T14:08:12.398Z,3988
2019-05-26T14:08:52.979Z,3940
2019-05-26T14:09:33.624Z,3960
2019-05-26T14:10:14.255Z,3980
2019-05-26T14:10:54.829Z,3988
2019-05-26T14:11:35.421Z,3984
2019-05-26T14:12:16.004Z,4024
2019-05-26T14:12:56.567Z,4044
2019-05-26T14:19:01.806Z,3676
2019-05-26T14:19:42.674Z,3632
2019-05-26T14:20:23.202Z,3572
2019-05-26T14:21:03.883Z,3596
2019-05-26T14:21:44.613Z,3688
2019-05-26T14:22:25.334Z,3748
2019-05-26T14:23:05.988Z,3788
2019-05-26T14:23:46.984Z,3832
2019-05-26T14:27:51.759Z,3808
2019-05-26T14:28:32.372Z,3656
2019-05-26T14:29:12.951Z,3484
2019-05-26T14:29:53.510Z,3320
2019-05-26T14:30:34.083Z,3212
2019-05-26T14:31:14.750Z,3120
2019-05-26T14:31:55.343Z,3044
2019-05-26T14:35:09.294Z,3332
2019-05-26T14:35:49.883Z,3432
2019-05-26T14:36:30.519Z,3500
2019-05-26T14:37:11.102Z,3532
2019-05-26T14:37:51.680Z,3508
2019-05-26T14:38:42.535Z,3456
2019-05-26T14:39:12.820Z,3464
2019-05-26T14:39:53.386Z,3516
2019-05-26T14:40:33.949Z,3552
2019-05-26T14:43:42.654Z,3660
2019-05-26T14:44:23.305Z,3656
2019-05-26T14:45:04.310Z,3692
2019-05-26T14:45:52.679Z,3708
2019-05-26T14:46:25.023Z,3696
2019-05-26T14:47:05.586Z,3688
2019-05-26T14:47:46.148Z,3684
2019-05-26T14:48:26.722Z,3676
2019-05-26T14:49:07.310Z,3628
2019-05-26T14:55:12.513Z,3116
2019-05-26T14:55:53.097Z,3140
2019-05-26T14:56:33.708Z,3224
2019-05-26T14:57:14.271Z,3288
2019-05-26T14:57:54.828Z,3312
2019-05-26T14:58:35.421Z,3356
2019-05-26T14:59:15.988Z,3404
2019-05-26T15:02:29.902Z,3960
2019-05-26T15:03:10.507Z,4264
2019-05-26T15:03:51.067Z,4160
2019-05-26T15:04:31.647Z,4152
2019-05-26T15:05:12.231Z,4184
2019-05-26T15:06:04.958Z,4208
2019-05-26T15:06:33.371Z,4212
2019-05-26T15:07:13.936Z,4200
2019-05-26T15:07:54.509Z,4196
2019-05-26T15:10:47.897Z,4024
2019-05-26T15:11:28.459Z,3948
2019-05-26T15:12:09.052Z,3876
2019-05-26T15:12:49.734Z,3816
2019-05-26T15:13:30.373Z,3732
2019-05-26T15:14:11.045Z,3664
2019-05-26T15:14:51.558Z,3560
2019-05-26T15:15:34.958Z,3472
2019-05-26T15:16:12.710Z,3392
2019-05-26T15:22:18.025Z,3144
2019-05-26T15:22:58.596Z,3176
2019-05-26T15:23:39.141Z,3164
2019-05-26T15:24:19.698Z,3116
2019-05-26T15:25:00.292Z,3096
2019-05-26T15:25:40.901Z,3112
2019-05-26T15:26:21.541Z,3120
2019-05-26T15:27:02.120Z,3160
2019-05-26T15:27:45.844Z,3196
2019-05-26T15:33:07.691Z,2972
2019-05-26T15:33:48.252Z,2988
2019-05-26T15:34:28.847Z,2968
2019-05-26T15:35:09.411Z,2880
2019-05-26T15:35:49.972Z,2776
2019-05-26T15:36:30.539Z,2692
2019-05-26T15:37:11.125Z,2660
2019-05-26T15:37:51.778Z,2656
2019-05-26T15:38:42.287Z,2720
2019-05-26T15:44:37.750Z,2288
2019-05-26T15:45:18.318Z,2340
2019-05-26T15:45:58.902Z,2452
2019-05-26T15:46:39.486Z,2524
2019-05-26T15:47:20.064Z,2536
2019-05-26T15:48:00.612Z,2492
2019-05-26T15:48:41.187Z,2424
2019-05-26T15:49:21.769Z,2388
2019-05-26T15:50:02.343Z,2372
2019-05-26T15:50:42.966Z,2264
2019-05-26T15:56:07.608Z,2008
2019-05-26T15:56:48.155Z,2052
2019-05-26T15:57:28.745Z,2096
2019-05-26T15:58:09.303Z,2088
2019-05-26T15:58:49.886Z,2044
2019-05-26T15:59:30.492Z,2012
2019-05-26T16:00:11.139Z,1972
2019-05-26T16:00:51.725Z,1952
2019-05-26T16:01:32.298Z,1936
2019-05-26T16:02:12.861Z,1920
2019-05-26T16:08:17.944Z,2036
2019-05-26T16:08:58.513Z,1996
2019-05-26T16:09:39.134Z,2028
2019-05-26T16:10:19.734Z,2028
2019-05-26T16:11:00.288Z,1964
2019-05-26T16:11:43.356Z,1984
2019-05-26T16:12:21.390Z,1964
2019-05-26T16:13:01.959Z,1972
2019-05-26T16:13:42.531Z,1972
2019-05-26T16:19:47.653Z,2072
2019-05-26T16:20:28.220Z,2076
2019-05-26T16:21:19.112Z,2132
2019-05-26T16:21:49.358Z,2172
2019-05-26T16:22:29.945Z,2196
2019-05-26T16:23:10.518Z,2204
2019-05-26T16:23:51.082Z,2220
2019-05-26T16:24:31.659Z,2244
2019-05-26T16:25:12.238Z,2276
2019-05-26T16:25:52.861Z,2328
2019-05-26T16:31:58.010Z,2832